sensor_id;sensor_type;location;lat;lon;timestamp;P1;durP1;ratioP1;P2;durP2;ratioP2
31438;SDS011;18062;48.872;9.220;2023-03-01T00:00:37;0.47;;;0.47;;
31438;SDS011;18062;48.872;9.220;2023-03-01T00:03:03;0.90;;;0.77;;
31438;SDS011;18062;48.872;9.220;2023-03-01T00:05:29;1.90;;;1.20;;
31438;SDS011;18062;48.872;9.220;2023-03-01T00:07:55;0.60;;;0.60;;
31438;SDS011;18062;48.872;9.220;2023-03-01T00:10:22;1.50;;;0.70;;
31438;SDS011;18062;48.872;9.220;2023-03-01T00:12:48;0.77;;;0.77;;
31438;SDS011;18062;48.872;9.220;2023-03-01T00:15:14;2.73;;;1.37;;
31438;SDS011;18062;48.872;9.220;2023-03-01T00:17:40;0.27;;;0.27;;
31438;SDS011;18062;48.872;9.220;2023-03-01T00:20:06;0.87;;;0.87;;
31438;SDS011;18062;48.872;9.220;2023-03-01T00:22:35;0.63;;;0.63;;
31438;SDS011;18062;48.872;9.220;2023-03-01T00:25:02;1.23;;;1.13;;
31438;SDS011;18062;48.872;9.220;2023-03-01T00:27:28;0.77;;;0.77;;
31438;SDS011;18062;48.872;9.220;2023-03-01T00:29:54;0.80;;;0.80;;
31438;SDS011;18062;48.872;9.220;2023-03-01T00:32:20;1.40;;;1.30;;
31438;SDS011;18062;48.872;9.220;2023-03-01T00:34:47;0.33;;;0.33;;
31438;SDS011;18062;48.872;9.220;2023-03-01T00:37:22;1.73;;;1.23;;
31438;SDS011;18062;48.872;9.220;2023-03-01T00:39:48;0.20;;;0.20;;
31438;SDS011;18062;48.872;9.220;2023-03-01T00:42:14;1.73;;;0.73;;
31438;SDS011;18062;48.872;9.220;2023-03-01T00:44:40;0.60;;;0.53;;
31438;SDS011;18062;48.872;9.220;2023-03-01T00:47:07;0.40;;;0.40;;
31438;SDS011;18062;48.872;9.220;2023-03-01T00:49:33;0.30;;;0.30;;
31438;SDS011;18062;48.872;9.220;2023-03-01T00:51:59;0.30;;;0.30;;
31438;SDS011;18062;48.872;9.220;2023-03-01T00:54:25;0.70;;;0.70;;
31438;SDS011;18062;48.872;9.220;2023-03-01T00:56:51;1.00;;;0.97;;
31438;SDS011;18062;48.872;9.220;2023-03-01T00:59:17;0.60;;;0.60;;
31438;SDS011;18062;48.872;9.220;2023-03-01T01:01:43;0.57;;;0.57;;
31438;SDS011;18062;48.872;9.220;2023-03-01T01:04:12;0.67;;;0.60;;
31438;SDS011;18062;48.872;9.220;2023-03-01T01:06:42;0.53;;;0.53;;
31438;SDS011;18062;48.872;9.220;2023-03-01T01:09:09;1.43;;;1.33;;
31438;SDS011;18062;48.872;9.220;2023-03-01T01:11:41;0.50;;;0.50;;
31438;SDS011;18062;48.872;9.220;2023-03-01T01:14:08;0.97;;;0.97;;
31438;SDS011;18062;48.872;9.220;2023-03-01T01:16:34;0.30;;;0.30;;
31438;SDS011;18062;48.872;9.220;2023-03-01T01:19:00;0.30;;;0.30;;
31438;SDS011;18062;48.872;9.220;2023-03-01T01:21:26;0.20;;;0.20;;
31438;SDS011;18062;48.872;9.220;2023-03-01T01:23:53;0.50;;;0.50;;
31438;SDS011;18062;48.872;9.220;2023-03-01T01:26:20;0.47;;;0.47;;
31438;SDS011;18062;48.872;9.220;2023-03-01T01:28:46;1.33;;;0.93;;
31438;SDS011;18062;48.872;9.220;2023-03-01T01:31:13;1.03;;;0.67;;
31438;SDS011;18062;48.872;9.220;2023-03-01T01:33:39;1.07;;;1.07;;
31438;SDS011;18062;48.872;9.220;2023-03-01T01:36:06;0.40;;;0.40;;
31438;SDS011;18062;48.872;9.220;2023-03-01T01:38:32;1.67;;;1.33;;
31438;SDS011;18062;48.872;9.220;2023-03-01T01:40:59;1.33;;;1.33;;
31438;SDS011;18062;48.872;9.220;2023-03-01T01:43:33;0.60;;;0.60;;
31438;SDS011;18062;48.872;9.220;2023-03-01T01:48:53;0.93;;;0.93;;
31438;SDS011;18062;48.872;9.220;2023-03-01T01:51:19;0.67;;;0.67;;
31438;SDS011;18062;48.872;9.220;2023-03-01T01:53:50;0.57;;;0.57;;
31438;SDS011;18062;48.872;9.220;2023-03-01T01:56:17;0.63;;;0.40;;
31438;SDS011;18062;48.872;9.220;2023-03-01T01:58:44;0.67;;;0.67;;
31438;SDS011;18062;48.872;9.220;2023-03-01T02:01:12;0.70;;;0.70;;
31438;SDS011;18062;48.872;9.220;2023-03-01T02:03:38;0.40;;;0.40;;
31438;SDS011;18062;48.872;9.220;2023-03-01T02:08:33;0.93;;;0.80;;
31438;SDS011;18062;48.872;9.220;2023-03-01T02:11:01;1.37;;;1.27;;
31438;SDS011;18062;48.872;9.220;2023-03-01T02:13:30;0.43;;;0.43;;
31438;SDS011;18062;48.872;9.220;2023-03-01T02:15:56;0.83;;;0.83;;
31438;SDS011;18062;48.872;9.220;2023-03-01T02:18:22;1.80;;;1.67;;
31438;SDS011;18062;48.872;9.220;2023-03-01T02:23:21;0.33;;;0.33;;
31438;SDS011;18062;48.872;9.220;2023-03-01T02:30:56;1.87;;;1.33;;
31438;SDS011;18062;48.872;9.220;2023-03-01T02:33:44;3.40;;;1.73;;
31438;SDS011;18062;48.872;9.220;2023-03-01T02:36:26;1.10;;;1.00;;
31438;SDS011;18062;48.872;9.220;2023-03-01T02:39:06;0.70;;;0.70;;
31438;SDS011;18062;48.872;9.220;2023-03-01T02:41:35;0.70;;;0.70;;
31438;SDS011;18062;48.872;9.220;2023-03-01T02:44:03;0.43;;;0.43;;
31438;SDS011;18062;48.872;9.220;2023-03-01T02:46:29;1.90;;;1.03;;
31438;SDS011;18062;48.872;9.220;2023-03-01T02:56:35;0.73;;;0.73;;
31438;SDS011;18062;48.872;9.220;2023-03-01T02:59:01;2.37;;;1.27;;
31438;SDS011;18062;48.872;9.220;2023-03-01T03:01:28;1.47;;;1.37;;
31438;SDS011;18062;48.872;9.220;2023-03-01T03:04:02;2.33;;;1.43;;
31438;SDS011;18062;48.872;9.220;2023-03-01T03:06:28;1.57;;;1.43;;
31438;SDS011;18062;48.872;9.220;2023-03-01T03:08:54;4.40;;;2.00;;
31438;SDS011;18062;48.872;9.220;2023-03-01T03:11:20;2.10;;;1.40;;
31438;SDS011;18062;48.872;9.220;2023-03-01T03:13:46;4.30;;;2.30;;
31438;SDS011;18062;48.872;9.220;2023-03-01T03:16:13;1.20;;;1.10;;
31438;SDS011;18062;48.872;9.220;2023-03-01T03:18:39;1.23;;;1.13;;
31438;SDS011;18062;48.872;9.220;2023-03-01T03:21:08;2.77;;;1.77;;
31438;SDS011;18062;48.872;9.220;2023-03-01T03:23:37;0.90;;;0.67;;
31438;SDS011;18062;48.872;9.220;2023-03-01T03:26:03;1.20;;;1.20;;
31438;SDS011;18062;48.872;9.220;2023-03-01T03:28:33;1.53;;;1.43;;
31438;SDS011;18062;48.872;9.220;2023-03-01T03:31:00;1.67;;;0.90;;
31438;SDS011;18062;48.872;9.220;2023-03-01T03:33:30;2.27;;;1.40;;
31438;SDS011;18062;48.872;9.220;2023-03-01T03:35:56;2.53;;;1.90;;
31438;SDS011;18062;48.872;9.220;2023-03-01T03:38:22;5.40;;;1.43;;
31438;SDS011;18062;48.872;9.220;2023-03-01T03:40:49;2.40;;;1.47;;
31438;SDS011;18062;48.872;9.220;2023-03-01T03:43:20;1.10;;;1.00;;
31438;SDS011;18062;48.872;9.220;2023-03-01T03:45:46;3.33;;;2.13;;
31438;SDS011;18062;48.872;9.220;2023-03-01T03:48:13;1.33;;;1.23;;
31438;SDS011;18062;48.872;9.220;2023-03-01T03:50:39;3.03;;;2.03;;
31438;SDS011;18062;48.872;9.220;2023-03-01T03:53:06;1.90;;;1.63;;
31438;SDS011;18062;48.872;9.220;2023-03-01T03:55:33;2.20;;;1.63;;
31438;SDS011;18062;48.872;9.220;2023-03-01T03:57:59;2.10;;;1.90;;
31438;SDS011;18062;48.872;9.220;2023-03-01T04:00:31;2.70;;;1.53;;
31438;SDS011;18062;48.872;9.220;2023-03-01T04:02:57;3.23;;;1.73;;
31438;SDS011;18062;48.872;9.220;2023-03-01T04:05:24;3.40;;;2.40;;
31438;SDS011;18062;48.872;9.220;2023-03-01T04:07:51;8.33;;;1.90;;
31438;SDS011;18062;48.872;9.220;2023-03-01T04:10:39;1.10;;;1.10;;
31438;SDS011;18062;48.872;9.220;2023-03-01T04:13:05;1.13;;;1.03;;
31438;SDS011;18062;48.872;9.220;2023-03-01T04:15:32;1.77;;;1.67;;
31438;SDS011;18062;48.872;9.220;2023-03-01T04:17:59;2.03;;;1.83;;
31438;SDS011;18062;48.872;9.220;2023-03-01T04:20:26;1.47;;;1.37;;
31438;SDS011;18062;48.872;9.220;2023-03-01T04:23:00;6.27;;;1.60;;
31438;SDS011;18062;48.872;9.220;2023-03-01T04:25:38;2.03;;;1.83;;
31438;SDS011;18062;48.872;9.220;2023-03-01T04:28:05;0.67;;;0.57;;
31438;SDS011;18062;48.872;9.220;2023-03-01T04:30:31;1.00;;;1.00;;
31438;SDS011;18062;48.872;9.220;2023-03-01T04:33:01;1.70;;;1.33;;
31438;SDS011;18062;48.872;9.220;2023-03-01T04:35:27;1.33;;;1.17;;
31438;SDS011;18062;48.872;9.220;2023-03-01T04:37:53;2.03;;;1.83;;
31438;SDS011;18062;48.872;9.220;2023-03-01T04:40:19;2.47;;;1.70;;
31438;SDS011;18062;48.872;9.220;2023-03-01T04:42:46;1.93;;;1.13;;
31438;SDS011;18062;48.872;9.220;2023-03-01T04:45:12;4.40;;;2.30;;
31438;SDS011;18062;48.872;9.220;2023-03-01T04:47:42;2.83;;;1.83;;
31438;SDS011;18062;48.872;9.220;2023-03-01T04:50:09;2.73;;;1.57;;
31438;SDS011;18062;48.872;9.220;2023-03-01T04:52:35;2.47;;;1.67;;
31438;SDS011;18062;48.872;9.220;2023-03-01T04:55:01;1.60;;;1.23;;
31438;SDS011;18062;48.872;9.220;2023-03-01T04:57:28;3.73;;;1.77;;
31438;SDS011;18062;48.872;9.220;2023-03-01T04:59:54;1.90;;;1.47;;
31438;SDS011;18062;48.872;9.220;2023-03-01T05:02:21;2.43;;;1.27;;
31438;SDS011;18062;48.872;9.220;2023-03-01T05:04:47;0.93;;;0.93;;
31438;SDS011;18062;48.872;9.220;2023-03-01T05:07:13;1.97;;;1.50;;
31438;SDS011;18062;48.872;9.220;2023-03-01T05:09:47;5.10;;;1.67;;
31438;SDS011;18062;48.872;9.220;2023-03-01T05:12:14;4.77;;;1.37;;
31438;SDS011;18062;48.872;9.220;2023-03-01T05:14:40;1.40;;;1.30;;
31438;SDS011;18062;48.872;9.220;2023-03-01T05:17:07;1.60;;;1.30;;
31438;SDS011;18062;48.872;9.220;2023-03-01T05:19:33;1.70;;;1.60;;
31438;SDS011;18062;48.872;9.220;2023-03-01T05:21:59;1.10;;;1.03;;
31438;SDS011;18062;48.872;9.220;2023-03-01T05:24:30;2.00;;;1.90;;
31438;SDS011;18062;48.872;9.220;2023-03-01T05:26:56;4.73;;;1.63;;
31438;SDS011;18062;48.872;9.220;2023-03-01T05:29:23;2.23;;;1.23;;
31438;SDS011;18062;48.872;9.220;2023-03-01T05:31:57;1.97;;;1.80;;
31438;SDS011;18062;48.872;9.220;2023-03-01T05:34:24;1.87;;;1.77;;
31438;SDS011;18062;48.872;9.220;2023-03-01T05:36:50;2.87;;;1.20;;
31438;SDS011;18062;48.872;9.220;2023-03-01T05:39:23;1.47;;;1.30;;
31438;SDS011;18062;48.872;9.220;2023-03-01T05:41:54;4.30;;;2.13;;
31438;SDS011;18062;48.872;9.220;2023-03-01T05:44:20;4.10;;;2.43;;
31438;SDS011;18062;48.872;9.220;2023-03-01T05:49:37;1.67;;;1.57;;
31438;SDS011;18062;48.872;9.220;2023-03-01T05:52:03;1.60;;;1.43;;
31438;SDS011;18062;48.872;9.220;2023-03-01T05:54:29;1.67;;;1.27;;
31438;SDS011;18062;48.872;9.220;2023-03-01T05:56:55;1.67;;;1.57;;
31438;SDS011;18062;48.872;9.220;2023-03-01T05:59:21;1.17;;;0.87;;
31438;SDS011;18062;48.872;9.220;2023-03-01T06:01:47;1.63;;;1.53;;
31438;SDS011;18062;48.872;9.220;2023-03-01T06:04:13;3.30;;;2.27;;
31438;SDS011;18062;48.872;9.220;2023-03-01T06:06:39;3.33;;;2.23;;
31438;SDS011;18062;48.872;9.220;2023-03-01T06:09:06;1.47;;;1.37;;
31438;SDS011;18062;48.872;9.220;2023-03-01T06:11:34;3.17;;;1.30;;
31438;SDS011;18062;48.872;9.220;2023-03-01T06:14:00;2.57;;;1.80;;
31438;SDS011;18062;48.872;9.220;2023-03-01T06:16:26;8.20;;;2.43;;
31438;SDS011;18062;48.872;9.220;2023-03-01T06:18:52;1.77;;;1.63;;
31438;SDS011;18062;48.872;9.220;2023-03-01T06:21:18;1.17;;;1.17;;
31438;SDS011;18062;48.872;9.220;2023-03-01T06:23:44;7.70;;;3.17;;
31438;SDS011;18062;48.872;9.220;2023-03-01T06:26:10;1.57;;;1.47;;
31438;SDS011;18062;48.872;9.220;2023-03-01T06:28:37;1.40;;;1.30;;
31438;SDS011;18062;48.872;9.220;2023-03-01T06:31:03;4.07;;;1.93;;
31438;SDS011;18062;48.872;9.220;2023-03-01T06:33:29;3.10;;;1.73;;
31438;SDS011;18062;48.872;9.220;2023-03-01T06:35:55;2.43;;;1.40;;
31438;SDS011;18062;48.872;9.220;2023-03-01T06:38:21;3.07;;;1.63;;
31438;SDS011;18062;48.872;9.220;2023-03-01T06:40:52;1.83;;;1.40;;
31438;SDS011;18062;48.872;9.220;2023-03-01T06:43:22;8.33;;;2.27;;
31438;SDS011;18062;48.872;9.220;2023-03-01T06:45:48;1.30;;;1.20;;
31438;SDS011;18062;48.872;9.220;2023-03-01T06:48:14;1.33;;;1.23;;
31438;SDS011;18062;48.872;9.220;2023-03-01T06:50:40;1.60;;;1.47;;
31438;SDS011;18062;48.872;9.220;2023-03-01T06:53:06;4.30;;;2.00;;
31438;SDS011;18062;48.872;9.220;2023-03-01T06:55:32;1.33;;;1.17;;
31438;SDS011;18062;48.872;9.220;2023-03-01T06:57:59;1.00;;;1.00;;
31438;SDS011;18062;48.872;9.220;2023-03-01T07:00:26;1.27;;;1.00;;
31438;SDS011;18062;48.872;9.220;2023-03-01T07:02:53;2.33;;;2.13;;
31438;SDS011;18062;48.872;9.220;2023-03-01T07:05:19;1.37;;;1.27;;
31438;SDS011;18062;48.872;9.220;2023-03-01T07:07:45;1.60;;;1.50;;
31438;SDS011;18062;48.872;9.220;2023-03-01T07:10:11;3.83;;;2.17;;
31438;SDS011;18062;48.872;9.220;2023-03-01T07:12:37;1.63;;;1.53;;
31438;SDS011;18062;48.872;9.220;2023-03-01T07:15:03;1.33;;;1.33;;
31438;SDS011;18062;48.872;9.220;2023-03-01T07:17:29;1.50;;;1.40;;
31438;SDS011;18062;48.872;9.220;2023-03-01T07:19:56;2.17;;;1.90;;
31438;SDS011;18062;48.872;9.220;2023-03-01T07:22:22;1.73;;;1.07;;
31438;SDS011;18062;48.872;9.220;2023-03-01T07:24:48;0.90;;;0.90;;
31438;SDS011;18062;48.872;9.220;2023-03-01T07:27:14;2.07;;;1.90;;
31438;SDS011;18062;48.872;9.220;2023-03-01T07:29:40;1.20;;;1.10;;
31438;SDS011;18062;48.872;9.220;2023-03-01T07:32:06;1.23;;;1.20;;
31438;SDS011;18062;48.872;9.220;2023-03-01T07:34:35;2.03;;;1.77;;
31438;SDS011;18062;48.872;9.220;2023-03-01T07:37:02;1.67;;;1.57;;
31438;SDS011;18062;48.872;9.220;2023-03-01T07:39:29;1.90;;;1.57;;
31438;SDS011;18062;48.872;9.220;2023-03-01T07:41:55;3.43;;;2.33;;
31438;SDS011;18062;48.872;9.220;2023-03-01T07:44:21;3.90;;;2.30;;
31438;SDS011;18062;48.872;9.220;2023-03-01T07:46:47;1.13;;;0.97;;
31438;SDS011;18062;48.872;9.220;2023-03-01T07:49:13;3.33;;;1.47;;
31438;SDS011;18062;48.872;9.220;2023-03-01T07:51:39;2.20;;;1.90;;
31438;SDS011;18062;48.872;9.220;2023-03-01T07:54:07;3.67;;;2.20;;
31438;SDS011;18062;48.872;9.220;2023-03-01T07:56:33;2.63;;;1.73;;
31438;SDS011;18062;48.872;9.220;2023-03-01T07:58:59;1.47;;;1.30;;
31438;SDS011;18062;48.872;9.220;2023-03-01T08:01:25;1.50;;;1.40;;
31438;SDS011;18062;48.872;9.220;2023-03-01T08:03:51;6.97;;;2.67;;
31438;SDS011;18062;48.872;9.220;2023-03-01T08:06:18;2.83;;;2.00;;
31438;SDS011;18062;48.872;9.220;2023-03-01T08:08:44;1.40;;;1.30;;
31438;SDS011;18062;48.872;9.220;2023-03-01T08:11:10;4.70;;;1.73;;
31438;SDS011;18062;48.872;9.220;2023-03-01T08:13:37;1.80;;;1.70;;
31438;SDS011;18062;48.872;9.220;2023-03-01T08:16:07;4.43;;;2.57;;
31438;SDS011;18062;48.872;9.220;2023-03-01T08:18:33;3.07;;;1.77;;
31438;SDS011;18062;48.872;9.220;2023-03-01T08:21:03;2.63;;;2.43;;
31438;SDS011;18062;48.872;9.220;2023-03-01T08:23:30;4.30;;;2.70;;
31438;SDS011;18062;48.872;9.220;2023-03-01T08:26:02;1.90;;;1.73;;
31438;SDS011;18062;48.872;9.220;2023-03-01T08:28:28;1.70;;;1.60;;
31438;SDS011;18062;48.872;9.220;2023-03-01T08:30:54;6.07;;;3.27;;
31438;SDS011;18062;48.872;9.220;2023-03-01T08:33:20;4.30;;;2.47;;
31438;SDS011;18062;48.872;9.220;2023-03-01T08:35:46;5.17;;;2.90;;
31438;SDS011;18062;48.872;9.220;2023-03-01T08:38:12;6.57;;;2.90;;
31438;SDS011;18062;48.872;9.220;2023-03-01T08:40:38;3.37;;;2.30;;
31438;SDS011;18062;48.872;9.220;2023-03-01T08:43:04;5.70;;;2.53;;
31438;SDS011;18062;48.872;9.220;2023-03-01T08:45:30;7.20;;;2.17;;
31438;SDS011;18062;48.872;9.220;2023-03-01T08:47:56;5.60;;;2.47;;
31438;SDS011;18062;48.872;9.220;2023-03-01T08:50:23;4.83;;;2.77;;
31438;SDS011;18062;48.872;9.220;2023-03-01T08:52:49;4.20;;;2.90;;
31438;SDS011;18062;48.872;9.220;2023-03-01T08:55:15;4.03;;;2.27;;
31438;SDS011;18062;48.872;9.220;2023-03-01T08:57:42;3.13;;;2.33;;
31438;SDS011;18062;48.872;9.220;2023-03-01T09:00:08;7.60;;;2.60;;
31438;SDS011;18062;48.872;9.220;2023-03-01T09:02:36;7.03;;;2.73;;
31438;SDS011;18062;48.872;9.220;2023-03-01T09:05:03;6.10;;;2.90;;
31438;SDS011;18062;48.872;9.220;2023-03-01T09:07:29;2.37;;;2.10;;
31438;SDS011;18062;48.872;9.220;2023-03-01T09:09:55;4.40;;;3.03;;
31438;SDS011;18062;48.872;9.220;2023-03-01T09:12:21;5.40;;;3.27;;
31438;SDS011;18062;48.872;9.220;2023-03-01T09:14:49;3.73;;;2.50;;
31438;SDS011;18062;48.872;9.220;2023-03-01T09:17:15;4.93;;;3.17;;
31438;SDS011;18062;48.872;9.220;2023-03-01T09:19:41;7.53;;;3.47;;
31438;SDS011;18062;48.872;9.220;2023-03-01T09:22:07;5.40;;;3.33;;
31438;SDS011;18062;48.872;9.220;2023-03-01T09:24:33;4.73;;;3.37;;
31438;SDS011;18062;48.872;9.220;2023-03-01T09:26:59;5.13;;;3.00;;
31438;SDS011;18062;48.872;9.220;2023-03-01T09:29:26;5.57;;;3.50;;
31438;SDS011;18062;48.872;9.220;2023-03-01T09:31:52;5.70;;;3.27;;
31438;SDS011;18062;48.872;9.220;2023-03-01T09:34:20;4.63;;;3.30;;
31438;SDS011;18062;48.872;9.220;2023-03-01T09:36:48;5.77;;;3.70;;
31438;SDS011;18062;48.872;9.220;2023-03-01T09:39:15;7.40;;;4.67;;
31438;SDS011;18062;48.872;9.220;2023-03-01T09:44:29;7.10;;;4.07;;
31438;SDS011;18062;48.872;9.220;2023-03-01T09:46:56;6.10;;;4.10;;
31438;SDS011;18062;48.872;9.220;2023-03-01T09:49:27;6.53;;;4.50;;
31438;SDS011;18062;48.872;9.220;2023-03-01T09:54:21;5.57;;;4.53;;
31438;SDS011;18062;48.872;9.220;2023-03-01T09:56:57;5.90;;;3.97;;
31438;SDS011;18062;48.872;9.220;2023-03-01T10:05:04;8.47;;;4.77;;
31438;SDS011;18062;48.872;9.220;2023-03-01T10:10:05;7.50;;;4.90;;
31438;SDS011;18062;48.872;9.220;2023-03-01T10:12:37;8.07;;;5.17;;
31438;SDS011;18062;48.872;9.220;2023-03-01T10:15:15;8.37;;;5.20;;
31438;SDS011;18062;48.872;9.220;2023-03-01T10:17:50;6.87;;;4.73;;
31438;SDS011;18062;48.872;9.220;2023-03-01T10:20:25;6.70;;;4.90;;
31438;SDS011;18062;48.872;9.220;2023-03-01T10:22:52;6.30;;;4.83;;
31438;SDS011;18062;48.872;9.220;2023-03-01T10:28:16;7.63;;;4.87;;
31438;SDS011;18062;48.872;9.220;2023-03-01T10:30:42;8.00;;;5.33;;
31438;SDS011;18062;48.872;9.220;2023-03-01T10:33:13;6.40;;;4.40;;
31438;SDS011;18062;48.872;9.220;2023-03-01T10:35:41;6.00;;;4.90;;
31438;SDS011;18062;48.872;9.220;2023-03-01T10:38:09;8.40;;;5.50;;
31438;SDS011;18062;48.872;9.220;2023-03-01T10:40:35;6.70;;;4.93;;
31438;SDS011;18062;48.872;9.220;2023-03-01T10:43:02;6.37;;;5.23;;
31438;SDS011;18062;48.872;9.220;2023-03-01T10:50:34;6.23;;;4.93;;
31438;SDS011;18062;48.872;9.220;2023-03-01T10:53:02;6.20;;;4.93;;
31438;SDS011;18062;48.872;9.220;2023-03-01T10:55:36;6.67;;;4.90;;
31438;SDS011;18062;48.872;9.220;2023-03-01T10:58:36;6.23;;;4.97;;
31438;SDS011;18062;48.872;9.220;2023-03-01T11:01:02;5.83;;;4.47;;
31438;SDS011;18062;48.872;9.220;2023-03-01T11:03:38;8.40;;;4.83;;
31438;SDS011;18062;48.872;9.220;2023-03-01T11:13:39;5.37;;;4.40;;
31438;SDS011;18062;48.872;9.220;2023-03-01T11:16:13;5.73;;;4.63;;
31438;SDS011;18062;48.872;9.220;2023-03-01T11:18:39;5.70;;;4.77;;
31438;SDS011;18062;48.872;9.220;2023-03-01T11:21:05;5.80;;;4.20;;
31438;SDS011;18062;48.872;9.220;2023-03-01T11:23:33;6.45;;;4.25;;
31438;SDS011;18062;48.872;9.220;2023-03-01T11:26:02;5.37;;;4.40;;
31438;SDS011;18062;48.872;9.220;2023-03-01T11:28:30;5.55;;;4.78;;
31438;SDS011;18062;48.872;9.220;2023-03-01T11:31:06;6.30;;;4.75;;
31438;SDS011;18062;48.872;9.220;2023-03-01T11:38:54;5.70;;;4.65;;
31438;SDS011;18062;48.872;9.220;2023-03-01T11:41:21;6.18;;;4.57;;
31438;SDS011;18062;48.872;9.220;2023-03-01T11:43:54;7.38;;;4.40;;
31438;SDS011;18062;48.872;9.220;2023-03-01T11:48:57;6.53;;;4.82;;
31438;SDS011;18062;48.872;9.220;2023-03-01T11:59:02;8.43;;;5.15;;
31438;SDS011;18062;48.872;9.220;2023-03-01T12:01:44;7.25;;;5.47;;
31438;SDS011;18062;48.872;9.220;2023-03-01T12:19:28;7.30;;;5.47;;
31438;SDS011;18062;48.872;9.220;2023-03-01T12:22:13;6.05;;;4.60;;
31438;SDS011;18062;48.872;9.220;2023-03-01T12:32:10;6.35;;;4.90;;
31438;SDS011;18062;48.872;9.220;2023-03-01T12:47:18;7.78;;;4.75;;
31438;SDS011;18062;48.872;9.220;2023-03-01T12:49:54;6.88;;;5.15;;
31438;SDS011;18062;48.872;9.220;2023-03-01T12:55:08;6.38;;;4.68;;
31438;SDS011;18062;48.872;9.220;2023-03-01T12:57:45;5.38;;;4.88;;
31438;SDS011;18062;48.872;9.220;2023-03-01T13:00:30;5.82;;;5.10;;
31438;SDS011;18062;48.872;9.220;2023-03-01T13:08:19;6.43;;;4.93;;
31438;SDS011;18062;48.872;9.220;2023-03-01T13:10:48;6.07;;;4.93;;
31438;SDS011;18062;48.872;9.220;2023-03-01T13:13:21;4.70;;;4.22;;
31438;SDS011;18062;48.872;9.220;2023-03-01T13:15:48;4.97;;;4.47;;
31438;SDS011;18062;48.872;9.220;2023-03-01T13:31:02;7.28;;;5.60;;
31438;SDS011;18062;48.872;9.220;2023-03-01T13:35:55;6.88;;;5.18;;
31438;SDS011;18062;48.872;9.220;2023-03-01T13:41:06;5.60;;;4.82;;
31438;SDS011;18062;48.872;9.220;2023-03-01T13:43:34;6.65;;;4.75;;
31438;SDS011;18062;48.872;9.220;2023-03-01T13:46:02;7.00;;;5.35;;
31438;SDS011;18062;48.872;9.220;2023-03-01T13:48:50;8.73;;;5.50;;
31438;SDS011;18062;48.872;9.220;2023-03-01T13:51:20;5.78;;;4.80;;
31438;SDS011;18062;48.872;9.220;2023-03-01T13:53:47;6.88;;;5.50;;
31438;SDS011;18062;48.872;9.220;2023-03-01T13:56:14;6.55;;;5.10;;
31438;SDS011;18062;48.872;9.220;2023-03-01T13:58:51;7.10;;;5.22;;
31438;SDS011;18062;48.872;9.220;2023-03-01T14:01:28;6.15;;;5.07;;
31438;SDS011;18062;48.872;9.220;2023-03-01T14:03:55;6.68;;;5.20;;
31438;SDS011;18062;48.872;9.220;2023-03-01T14:06:22;5.45;;;4.88;;
31438;SDS011;18062;48.872;9.220;2023-03-01T14:08:49;7.65;;;5.45;;
31438;SDS011;18062;48.872;9.220;2023-03-01T14:16:33;6.13;;;5.32;;
31438;SDS011;18062;48.872;9.220;2023-03-01T14:19:05;5.50;;;4.90;;
31438;SDS011;18062;48.872;9.220;2023-03-01T14:21:34;7.63;;;5.25;;
31438;SDS011;18062;48.872;9.220;2023-03-01T14:24:01;7.10;;;5.22;;
31438;SDS011;18062;48.872;9.220;2023-03-01T14:26:27;6.60;;;5.32;;
31438;SDS011;18062;48.872;9.220;2023-03-01T14:28:53;7.07;;;5.03;;
31438;SDS011;18062;48.872;9.220;2023-03-01T14:31:38;6.45;;;5.22;;
31438;SDS011;18062;48.872;9.220;2023-03-01T14:34:05;6.00;;;5.25;;
31438;SDS011;18062;48.872;9.220;2023-03-01T14:36:32;7.72;;;5.40;;
31438;SDS011;18062;48.872;9.220;2023-03-01T14:38:59;5.78;;;4.85;;
31438;SDS011;18062;48.872;9.220;2023-03-01T14:41:32;7.43;;;5.15;;
31438;SDS011;18062;48.872;9.220;2023-03-01T14:44:00;5.45;;;4.78;;
31438;SDS011;18062;48.872;9.220;2023-03-01T14:46:34;6.72;;;5.45;;
31438;SDS011;18062;48.872;9.220;2023-03-01T14:49:02;6.68;;;5.10;;
31438;SDS011;18062;48.872;9.220;2023-03-01T14:51:29;6.25;;;4.80;;
31438;SDS011;18062;48.872;9.220;2023-03-01T14:53:55;6.50;;;5.32;;
31438;SDS011;18062;48.872;9.220;2023-03-01T14:56:21;7.57;;;5.27;;
31438;SDS011;18062;48.872;9.220;2023-03-01T14:58:51;6.00;;;4.47;;
31438;SDS011;18062;48.872;9.220;2023-03-01T15:01:18;6.63;;;5.10;;
31438;SDS011;18062;48.872;9.220;2023-03-01T15:03:45;7.07;;;4.73;;
31438;SDS011;18062;48.872;9.220;2023-03-01T15:06:14;6.10;;;4.70;;
31438;SDS011;18062;48.872;9.220;2023-03-01T15:08:47;7.37;;;5.03;;
31438;SDS011;18062;48.872;9.220;2023-03-01T15:13:43;5.53;;;4.60;;
31438;SDS011;18062;48.872;9.220;2023-03-01T15:16:12;9.67;;;4.60;;
31438;SDS011;18062;48.872;9.220;2023-03-01T15:18:46;7.30;;;4.53;;
31438;SDS011;18062;48.872;9.220;2023-03-01T15:21:23;6.27;;;3.73;;
31438;SDS011;18062;48.872;9.220;2023-03-01T15:23:54;5.03;;;3.60;;
31438;SDS011;18062;48.872;9.220;2023-03-01T15:26:24;5.63;;;4.10;;
31438;SDS011;18062;48.872;9.220;2023-03-01T15:28:51;6.67;;;3.43;;
31438;SDS011;18062;48.872;9.220;2023-03-01T15:31:21;6.53;;;3.93;;
31438;SDS011;18062;48.872;9.220;2023-03-01T15:33:48;5.63;;;3.60;;
31438;SDS011;18062;48.872;9.220;2023-03-01T15:38:56;4.67;;;3.43;;
31438;SDS011;18062;48.872;9.220;2023-03-01T15:41:24;4.27;;;2.87;;
31438;SDS011;18062;48.872;9.220;2023-03-01T15:43:51;7.57;;;3.00;;
31438;SDS011;18062;48.872;9.220;2023-03-01T15:48:47;6.27;;;3.37;;
31438;SDS011;18062;48.872;9.220;2023-03-01T15:51:14;5.03;;;3.20;;
31438;SDS011;18062;48.872;9.220;2023-03-01T15:53:41;3.80;;;3.30;;
31438;SDS011;18062;48.872;9.220;2023-03-01T15:56:08;6.87;;;3.10;;
31438;SDS011;18062;48.872;9.220;2023-03-01T15:58:34;4.93;;;2.93;;
31438;SDS011;18062;48.872;9.220;2023-03-01T16:01:00;4.70;;;2.80;;
31438;SDS011;18062;48.872;9.220;2023-03-01T16:03:26;5.67;;;3.33;;
31438;SDS011;18062;48.872;9.220;2023-03-01T16:05:53;4.33;;;2.73;;
31438;SDS011;18062;48.872;9.220;2023-03-01T16:08:19;5.07;;;3.00;;
31438;SDS011;18062;48.872;9.220;2023-03-01T16:10:45;6.57;;;3.07;;
31438;SDS011;18062;48.872;9.220;2023-03-01T16:13:13;4.57;;;3.17;;
31438;SDS011;18062;48.872;9.220;2023-03-01T16:15:39;6.83;;;2.73;;
31438;SDS011;18062;48.872;9.220;2023-03-01T16:18:06;4.10;;;2.73;;
31438;SDS011;18062;48.872;9.220;2023-03-01T16:20:35;5.50;;;3.23;;
31438;SDS011;18062;48.872;9.220;2023-03-01T16:23:02;5.07;;;2.77;;
31438;SDS011;18062;48.872;9.220;2023-03-01T16:25:29;6.20;;;2.33;;
31438;SDS011;18062;48.872;9.220;2023-03-01T16:27:56;6.60;;;2.97;;
31438;SDS011;18062;48.872;9.220;2023-03-01T16:30:24;4.40;;;2.27;;
31438;SDS011;18062;48.872;9.220;2023-03-01T16:32:50;4.53;;;3.03;;
31438;SDS011;18062;48.872;9.220;2023-03-01T16:35:17;5.47;;;2.50;;
31438;SDS011;18062;48.872;9.220;2023-03-01T16:37:43;3.40;;;1.97;;
31438;SDS011;18062;48.872;9.220;2023-03-01T16:40:43;4.60;;;2.80;;
31438;SDS011;18062;48.872;9.220;2023-03-01T16:43:02;4.53;;;2.83;;
31438;SDS011;18062;48.872;9.220;2023-03-01T16:45:32;4.23;;;3.03;;
31438;SDS011;18062;48.872;9.220;2023-03-01T16:48:00;6.03;;;2.30;;
31438;SDS011;18062;48.872;9.220;2023-03-01T16:50:26;5.03;;;2.70;;
31438;SDS011;18062;48.872;9.220;2023-03-01T16:52:52;3.27;;;2.13;;
31438;SDS011;18062;48.872;9.220;2023-03-01T16:55:18;2.97;;;2.13;;
31438;SDS011;18062;48.872;9.220;2023-03-01T16:57:44;2.97;;;1.97;;
31438;SDS011;18062;48.872;9.220;2023-03-01T17:00:10;3.30;;;1.80;;
31438;SDS011;18062;48.872;9.220;2023-03-01T17:02:41;2.13;;;1.70;;
31438;SDS011;18062;48.872;9.220;2023-03-01T17:05:07;2.07;;;1.57;;
31438;SDS011;18062;48.872;9.220;2023-03-01T17:07:34;3.07;;;1.87;;
31438;SDS011;18062;48.872;9.220;2023-03-01T17:10:01;7.30;;;2.60;;
31438;SDS011;18062;48.872;9.220;2023-03-01T17:12:27;5.93;;;2.60;;
31438;SDS011;18062;48.872;9.220;2023-03-01T17:14:53;3.63;;;1.80;;